sensor_id;sensor_type;location;lat;lon;timestamp;temperature;humidity
5118;DHT22;2578;51.622;7.046;2023-02-12T00:01:16;7.70;99.90
5118;DHT22;2578;51.622;7.046;2023-02-12T00:03:42;7.70;99.90
5118;DHT22;2578;51.622;7.046;2023-02-12T00:06:09;7.80;99.90
5118;DHT22;2578;51.622;7.046;2023-02-12T00:08:35;7.70;99.90
5118;DHT22;2578;51.622;7.046;2023-02-12T00:11:12;7.70;99.90
5118;DHT22;2578;51.622;7.046;2023-02-12T00:13:38;7.70;99.90
5118;DHT22;2578;51.622;7.046;2023-02-12T00:16:09;7.70;99.90
5118;DHT22;2578;51.622;7.046;2023-02-12T00:18:35;7.70;99.90
5118;DHT22;2578;51.622;7.046;2023-02-12T00:21:02;7.70;99.90
5118;DHT22;2578;51.622;7.046;2023-02-12T00:23:28;7.70;99.90
5118;DHT22;2578;51.622;7.046;2023-02-12T00:25:53;7.70;99.90
5118;DHT22;2578;51.622;7.046;2023-02-12T00:28:19;7.80;99.90
5118;DHT22;2578;51.622;7.046;2023-02-12T00:30:44;7.70;99.90
5118;DHT22;2578;51.622;7.046;2023-02-12T00:33:10;7.70;99.90
5118;DHT22;2578;51.622;7.046;2023-02-12T00:35:36;7.70;99.90
5118;DHT22;2578;51.622;7.046;2023-02-12T00:38:01;7.70;99.90
5118;DHT22;2578;51.622;7.046;2023-02-12T00:40:27;7.60;99.90
5118;DHT22;2578;51.622;7.046;2023-02-12T00:42:52;7.60;99.90
5118;DHT22;2578;51.622;7.046;2023-02-12T00:45:18;7.60;99.90
5118;DHT22;2578;51.622;7.046;2023-02-12T00:47:43;7.70;99.90
5118;DHT22;2578;51.622;7.046;2023-02-12T00:50:10;8.20;99.90
5118;DHT22;2578;51.622;7.046;2023-02-12T00:52:35;7.60;99.90
5118;DHT22;2578;51.622;7.046;2023-02-12T00:55:01;7.60;99.90
5118;DHT22;2578;51.622;7.046;2023-02-12T00:57:27;7.60;99.90
5118;DHT22;2578;51.622;7.046;2023-02-12T00:59:52;7.60;99.90
5118;DHT22;2578;51.622;7.046;2023-02-12T01:02:18;7.50;99.90
5118;DHT22;2578;51.622;7.046;2023-02-12T01:04:44;7.50;99.90
5118;DHT22;2578;51.622;7.046;2023-02-12T01:07:09;7.40;99.90
5118;DHT22;2578;51.622;7.046;2023-02-12T01:09:35;7.40;99.90
5118;DHT22;2578;51.622;7.046;2023-02-12T01:12:01;7.40;99.90
5118;DHT22;2578;51.622;7.046;2023-02-12T01:14:27;7.40;99.90
5118;DHT22;2578;51.622;7.046;2023-02-12T01:16:53;7.40;99.90
5118;DHT22;2578;51.622;7.046;2023-02-12T01:19:18;7.40;99.90
5118;DHT22;2578;51.622;7.046;2023-02-12T01:21:44;7.30;99.90
5118;DHT22;2578;51.622;7.046;2023-02-12T01:24:10;7.30;99.90
5118;DHT22;2578;51.622;7.046;2023-02-12T01:26:35;7.30;99.90
5118;DHT22;2578;51.622;7.046;2023-02-12T01:29:03;7.30;99.90
5118;DHT22;2578;51.622;7.046;2023-02-12T01:31:34;7.30;99.90
5118;DHT22;2578;51.622;7.046;2023-02-12T01:34:00;7.30;99.90
5118;DHT22;2578;51.622;7.046;2023-02-12T01:36:28;7.30;99.90
5118;DHT22;2578;51.622;7.046;2023-02-12T01:38:54;7.30;99.90
5118;DHT22;2578;51.622;7.046;2023-02-12T01:41:29;7.30;99.90
5118;DHT22;2578;51.622;7.046;2023-02-12T01:46:42;7.20;99.90
5118;DHT22;2578;51.622;7.046;2023-02-12T01:49:13;7.20;99.90
5118;DHT22;2578;51.622;7.046;2023-02-12T01:51:42;7.30;99.90
5118;DHT22;2578;51.622;7.046;2023-02-12T01:54:10;7.20;99.90
5118;DHT22;2578;51.622;7.046;2023-02-12T01:56:38;7.30;99.90
5118;DHT22;2578;51.622;7.046;2023-02-12T01:59:05;7.30;99.90
5118;DHT22;2578;51.622;7.046;2023-02-12T02:01:31;7.30;99.90
5118;DHT22;2578;51.622;7.046;2023-02-12T02:04:01;7.30;99.90
5118;DHT22;2578;51.622;7.046;2023-02-12T02:06:34;7.20;99.90
5118;DHT22;2578;51.622;7.046;2023-02-12T02:09:01;7.20;99.90
5118;DHT22;2578;51.622;7.046;2023-02-12T02:11:27;7.20;99.90
5118;DHT22;2578;51.622;7.046;2023-02-12T02:14:11;7.20;99.90
5118;DHT22;2578;51.622;7.046;2023-02-12T02:31:11;7.20;99.90
5118;DHT22;2578;51.622;7.046;2023-02-12T02:33:55;7.20;99.90
5118;DHT22;2578;51.622;7.046;2023-02-12T02:36:49;7.20;99.90
5118;DHT22;2578;51.622;7.046;2023-02-12T02:42:09;7.20;99.90
5118;DHT22;2578;51.622;7.046;2023-02-12T02:44:49;7.20;99.90
5118;DHT22;2578;51.622;7.046;2023-02-12T02:47:19;7.10;99.90
5118;DHT22;2578;51.622;7.046;2023-02-12T02:49:50;7.20;99.90
5118;DHT22;2578;51.622;7.046;2023-02-12T02:52:21;7.20;99.90
5118;DHT22;2578;51.622;7.046;2023-02-12T02:54:52;7.30;99.90
5118;DHT22;2578;51.622;7.046;2023-02-12T02:57:24;7.20;99.90
5118;DHT22;2578;51.622;7.046;2023-02-12T02:59:55;7.20;99.90
5118;DHT22;2578;51.622;7.046;2023-02-12T03:02:27;7.20;99.90
5118;DHT22;2578;51.622;7.046;2023-02-12T03:04:58;7.20;99.90
5118;DHT22;2578;51.622;7.046;2023-02-12T03:07:39;7.20;99.90
5118;DHT22;2578;51.622;7.046;2023-02-12T03:10:09;7.20;99.90
5118;DHT22;2578;51.622;7.046;2023-02-12T03:12:37;7.20;99.90
5118;DHT22;2578;51.622;7.046;2023-02-12T03:15:21;7.20;99.90
5118;DHT22;2578;51.622;7.046;2023-02-12T03:17:49;7.20;99.90
5118;DHT22;2578;51.622;7.046;2023-02-12T03:20:24;7.20;99.90
5118;DHT22;2578;51.622;7.046;2023-02-12T03:22:57;7.20;99.90
5118;DHT22;2578;51.622;7.046;2023-02-12T03:25:47;7.20;99.90
5118;DHT22;2578;51.622;7.046;2023-02-12T03:36:48;7.20;99.90
5118;DHT22;2578;51.622;7.046;2023-02-12T03:45:15;7.10;99.90
5118;DHT22;2578;51.622;7.046;2023-02-12T03:47:49;7.10;99.90
5118;DHT22;2578;51.622;7.046;2023-02-12T03:51:02;7.10;99.90
5118;DHT22;2578;51.622;7.046;2023-02-12T03:53:08;7.20;99.90
5118;DHT22;2578;51.622;7.046;2023-02-12T03:55:36;7.20;99.90
5118;DHT22;2578;51.622;7.046;2023-02-12T03:58:08;7.10;99.90
5118;DHT22;2578;51.622;7.046;2023-02-12T04:00:37;7.20;99.90
5118;DHT22;2578;51.622;7.046;2023-02-12T04:03:04;7.20;99.90
5118;DHT22;2578;51.622;7.046;2023-02-12T04:05:30;7.10;99.90
5118;DHT22;2578;51.622;7.046;2023-02-12T04:07:56;7.20;99.90
5118;DHT22;2578;51.622;7.046;2023-02-12T04:10:37;7.20;99.90
5118;DHT22;2578;51.622;7.046;2023-02-12T04:16:34;7.10;99.90
5118;DHT22;2578;51.622;7.046;2023-02-12T04:19:05;7.10;99.90
5118;DHT22;2578;51.622;7.046;2023-02-12T04:24:57;7.10;99.90
5118;DHT22;2578;51.622;7.046;2023-02-12T04:27:29;7.10;99.90
5118;DHT22;2578;51.622;7.046;2023-02-12T04:30:31;7.00;99.90
5118;DHT22;2578;51.622;7.046;2023-02-12T04:33:05;7.00;99.90
5118;DHT22;2578;51.622;7.046;2023-02-12T04:35:35;7.00;99.90
5118;DHT22;2578;51.622;7.046;2023-02-12T04:38:20;7.10;99.90
5118;DHT22;2578;51.622;7.046;2023-02-12T04:40:48;7.10;99.90
5118;DHT22;2578;51.622;7.046;2023-02-12T04:43:14;7.10;99.90
5118;DHT22;2578;51.622;7.046;2023-02-12T04:45:49;7.10;99.90
5118;DHT22;2578;51.622;7.046;2023-02-12T04:48:15;7.10;99.90
5118;DHT22;2578;51.622;7.046;2023-02-12T04:50:42;7.20;99.90
5118;DHT22;2578;51.622;7.046;2023-02-12T04:53:09;7.10;99.90
5118;DHT22;2578;51.622;7.046;2023-02-12T04:55:35;7.10;99.90
5118;DHT22;2578;51.622;7.046;2023-02-12T04:58:00;7.20;99.90
5118;DHT22;2578;51.622;7.046;2023-02-12T05:00:26;7.10;99.90
5118;DHT22;2578;51.622;7.046;2023-02-12T05:02:52;7.10;99.90
5118;DHT22;2578;51.622;7.046;2023-02-12T05:05:17;7.20;99.90
5118;DHT22;2578;51.622;7.046;2023-02-12T05:07:43;7.20;99.90
5118;DHT22;2578;51.622;7.046;2023-02-12T05:10:09;7.20;99.90
5118;DHT22;2578;51.622;7.046;2023-02-12T05:12:35;7.20;99.90
5118;DHT22;2578;51.622;7.046;2023-02-12T05:15:00;7.20;99.90
5118;DHT22;2578;51.622;7.046;2023-02-12T05:17:26;7.20;99.90
5118;DHT22;2578;51.622;7.046;2023-02-12T05:19:51;7.20;99.90
5118;DHT22;2578;51.622;7.046;2023-02-12T05:22:17;7.20;99.90
5118;DHT22;2578;51.622;7.046;2023-02-12T05:24:43;7.20;99.90
5118;DHT22;2578;51.622;7.046;2023-02-12T05:27:08;7.20;99.90
5118;DHT22;2578;51.622;7.046;2023-02-12T05:29:35;7.20;99.90
5118;DHT22;2578;51.622;7.046;2023-02-12T05:32:00;7.20;99.90
5118;DHT22;2578;51.622;7.046;2023-02-12T05:34:26;7.20;99.90
5118;DHT22;2578;51.622;7.046;2023-02-12T05:36:51;7.10;99.90
5118;DHT22;2578;51.622;7.046;2023-02-12T05:39:17;7.10;99.90
5118;DHT22;2578;51.622;7.046;2023-02-12T05:41:43;7.10;99.90
5118;DHT22;2578;51.622;7.046;2023-02-12T05:44:08;7.10;99.90
5118;DHT22;2578;51.622;7.046;2023-02-12T05:46:36;7.10;99.90
5118;DHT22;2578;51.622;7.046;2023-02-12T05:49:02;7.20;99.90
5118;DHT22;2578;51.622;7.046;2023-02-12T05:51:28;7.20;99.90
5118;DHT22;2578;51.622;7.046;2023-02-12T05:53:58;7.30;99.90
5118;DHT22;2578;51.622;7.046;2023-02-12T05:56:29;7.20;99.90
5118;DHT22;2578;51.622;7.046;2023-02-12T05:59:00;7.20;99.90
5118;DHT22;2578;51.622;7.046;2023-02-12T06:01:39;7.20;99.90
5118;DHT22;2578;51.622;7.046;2023-02-12T06:04:09;7.20;99.90
5118;DHT22;2578;51.622;7.046;2023-02-12T06:06:37;7.10;99.90
5118;DHT22;2578;51.622;7.046;2023-02-12T06:09:07;7.00;99.90
5118;DHT22;2578;51.622;7.046;2023-02-12T06:11:32;7.00;99.90
5118;DHT22;2578;51.622;7.046;2023-02-12T06:14:01;7.00;99.90
5118;DHT22;2578;51.622;7.046;2023-02-12T06:16:27;7.00;99.90
5118;DHT22;2578;51.622;7.046;2023-02-12T06:18:55;7.10;99.90
5118;DHT22;2578;51.622;7.046;2023-02-12T06:21:22;7.10;99.90
5118;DHT22;2578;51.622;7.046;2023-02-12T06:23:49;7.20;99.90
5118;DHT22;2578;51.622;7.046;2023-02-12T06:26:15;7.20;99.90
5118;DHT22;2578;51.622;7.046;2023-02-12T06:28:41;7.30;99.90
5118;DHT22;2578;51.622;7.046;2023-02-12T06:33:42;7.30;99.90
5118;DHT22;2578;51.622;7.046;2023-02-12T06:36:08;7.40;99.90
5118;DHT22;2578;51.622;7.046;2023-02-12T06:38:34;7.40;99.90
5118;DHT22;2578;51.622;7.046;2023-02-12T06:41:03;7.40;99.90
5118;DHT22;2578;51.622;7.046;2023-02-12T06:43:29;7.50;99.90
5118;DHT22;2578;51.622;7.046;2023-02-12T06:45:54;7.40;99.90
5118;DHT22;2578;51.622;7.046;2023-02-12T06:48:20;7.30;99.90
5118;DHT22;2578;51.622;7.046;2023-02-12T06:50:46;7.30;99.90
5118;DHT22;2578;51.622;7.046;2023-02-12T06:53:11;7.20;99.90
5118;DHT22;2578;51.622;7.046;2023-02-12T06:55:37;7.20;99.90
5118;DHT22;2578;51.622;7.046;2023-02-12T06:58:03;7.20;99.90
5118;DHT22;2578;51.622;7.046;2023-02-12T07:00:28;7.20;99.90
5118;DHT22;2578;51.622;7.046;2023-02-12T07:02:54;7.20;99.90
5118;DHT22;2578;51.622;7.046;2023-02-12T07:05:20;7.20;99.90
5118;DHT22;2578;51.622;7.046;2023-02-12T07:07:46;7.20;99.90
5118;DHT22;2578;51.622;7.046;2023-02-12T07:10:12;7.30;99.90
5118;DHT22;2578;51.622;7.046;2023-02-12T07:12:37;7.30;99.90
5118;DHT22;2578;51.622;7.046;2023-02-12T07:15:03;7.30;99.90
5118;DHT22;2578;51.622;7.046;2023-02-12T07:17:29;7.30;99.90
5118;DHT22;2578;51.622;7.046;2023-02-12T07:19:55;7.40;99.90
5118;DHT22;2578;51.622;7.046;2023-02-12T07:22:21;7.50;99.90
5118;DHT22;2578;51.622;7.046;2023-02-12T07:24:47;7.50;99.90
5118;DHT22;2578;51.622;7.046;2023-02-12T07:27:13;7.50;99.90
5118;DHT22;2578;51.622;7.046;2023-02-12T07:29:39;7.50;99.90
5118;DHT22;2578;51.622;7.046;2023-02-12T07:32:05;7.50;99.90
5118;DHT22;2578;51.622;7.046;2023-02-12T07:34:31;7.50;99.90
5118;DHT22;2578;51.622;7.046;2023-02-12T07:36:57;7.50;99.90
5118;DHT22;2578;51.622;7.046;2023-02-12T07:39:22;7.60;99.90
5118;DHT22;2578;51.622;7.046;2023-02-12T07:41:48;7.60;99.90
5118;DHT22;2578;51.622;7.046;2023-02-12T07:44:13;7.60;99.90
5118;DHT22;2578;51.622;7.046;2023-02-12T07:46:45;7.60;99.90
5118;DHT22;2578;51.622;7.046;2023-02-12T07:49:13;7.70;99.90
5118;DHT22;2578;51.622;7.046;2023-02-12T07:51:39;7.70;99.90
5118;DHT22;2578;51.622;7.046;2023-02-12T07:54:05;7.80;99.90
5118;DHT22;2578;51.622;7.046;2023-02-12T07:56:33;8.00;99.90
5118;DHT22;2578;51.622;7.046;2023-02-12T07:59:01;8.10;99.90
5118;DHT22;2578;51.622;7.046;2023-02-12T08:01:32;8.10;99.90
5118;DHT22;2578;51.622;7.046;2023-02-12T08:04:00;8.10;99.90
5118;DHT22;2578;51.622;7.046;2023-02-12T08:06:29;8.10;99.90
5118;DHT22;2578;51.622;7.046;2023-02-12T08:08:57;8.20;99.90
5118;DHT22;2578;51.622;7.046;2023-02-12T08:11:24;8.30;99.90
5118;DHT22;2578;51.622;7.046;2023-02-12T08:13:50;8.30;99.90
5118;DHT22;2578;51.622;7.046;2023-02-12T08:16:22;8.40;99.90
5118;DHT22;2578;51.622;7.046;2023-02-12T08:18:48;8.30;99.90
5118;DHT22;2578;51.622;7.046;2023-02-12T08:21:16;8.40;99.90
5118;DHT22;2578;51.622;7.046;2023-02-12T08:23:45;8.30;99.90
5118;DHT22;2578;51.622;7.046;2023-02-12T08:26:17;8.40;99.90
5118;DHT22;2578;51.622;7.046;2023-02-12T08:28:47;8.40;99.90
5118;DHT22;2578;51.622;7.046;2023-02-12T08:31:24;8.40;99.90
5118;DHT22;2578;51.622;7.046;2023-02-12T08:33:51;8.50;99.90
5118;DHT22;2578;51.622;7.046;2023-02-12T08:36:19;8.50;99.90
5118;DHT22;2578;51.622;7.046;2023-02-12T08:38:46;8.60;99.90
5118;DHT22;2578;51.622;7.046;2023-02-12T08:41:15;8.60;99.90
5118;DHT22;2578;51.622;7.046;2023-02-12T08:43:41;8.60;99.90
5118;DHT22;2578;51.622;7.046;2023-02-12T08:46:18;8.50;99.90
5118;DHT22;2578;51.622;7.046;2023-02-12T08:48:44;8.40;99.90
5118;DHT22;2578;51.622;7.046;2023-02-12T08:51:16;8.40;99.90
5118;DHT22;2578;51.622;7.046;2023-02-12T08:53:43;8.40;99.90
5118;DHT22;2578;51.622;7.046;2023-02-12T08:56:11;8.40;99.90
5118;DHT22;2578;51.622;7.046;2023-02-12T08:58:37;8.40;99.90
5118;DHT22;2578;51.622;7.046;2023-02-12T09:01:04;8.40;99.90
5118;DHT22;2578;51.622;7.046;2023-02-12T09:03:33;8.40;99.90
5118;DHT22;2578;51.622;7.046;2023-02-12T09:06:02;8.50;99.90
5118;DHT22;2578;51.622;7.046;2023-02-12T09:08:27;8.60;99.90
5118;DHT22;2578;51.622;7.046;2023-02-12T09:10:53;8.70;99.90
5118;DHT22;2578;51.622;7.046;2023-02-12T09:13:19;8.70;99.90
5118;DHT22;2578;51.622;7.046;2023-02-12T09:15:45;8.70;99.90
5118;DHT22;2578;51.622;7.046;2023-02-12T09:18:12;8.80;99.90
5118;DHT22;2578;51.622;7.046;2023-02-12T09:20:42;8.80;99.90
5118;DHT22;2578;51.622;7.046;2023-02-12T09:23:10;8.80;99.90
5118;DHT22;2578;51.622;7.046;2023-02-12T09:25:41;8.80;99.90
5118;DHT22;2578;51.622;7.046;2023-02-12T09:28:07;8.70;99.90
5118;DHT22;2578;51.622;7.046;2023-02-12T09:30:34;8.80;99.90
5118;DHT22;2578;51.622;7.046;2023-02-12T09:33:00;8.80;99.90
5118;DHT22;2578;51.622;7.046;2023-02-12T09:35:26;8.70;99.90
5118;DHT22;2578;51.622;7.046;2023-02-12T09:37:52;8.70;99.90
5118;DHT22;2578;51.622;7.046;2023-02-12T09:40:30;8.70;99.90
5118;DHT22;2578;51.622;7.046;2023-02-12T09:42:59;8.70;99.90
5118;DHT22;2578;51.622;7.046;2023-02-12T09:45:31;8.70;99.90
5118;DHT22;2578;51.622;7.046;2023-02-12T09:51:05;8.60;99.90
5118;DHT22;2578;51.622;7.046;2023-02-12T09:53:35;8.70;99.90
5118;DHT22;2578;51.622;7.046;2023-02-12T09:56:01;8.70;99.90
5118;DHT22;2578;51.622;7.046;2023-02-12T09:58:40;8.80;99.90
5118;DHT22;2578;51.622;7.046;2023-02-12T10:01:12;8.80;99.90
5118;DHT22;2578;51.622;7.046;2023-02-12T10:03:38;8.90;99.90
5118;DHT22;2578;51.622;7.046;2023-02-12T10:06:16;9.00;99.90
5118;DHT22;2578;51.622;7.046;2023-02-12T10:11:52;9.20;99.90
5118;DHT22;2578;51.622;7.046;2023-02-12T10:28:14;9.90;99.90
5118;DHT22;2578;51.622;7.046;2023-02-12T10:31:02;10.00;99.90
5118;DHT22;2578;51.622;7.046;2023-02-12T10:33:44;10.10;99.90
5118;DHT22;2578;51.622;7.046;2023-02-12T10:36:31;11.70;99.90
5118;DHT22;2578;51.622;7.046;2023-02-12T10:41:37;10.30;99.90
5118;DHT22;2578;51.622;7.046;2023-02-12T10:44:05;10.30;99.90
5118;DHT22;2578;51.622;7.046;2023-02-12T10:46:31;10.30;99.90
5118;DHT22;2578;51.622;7.046;2023-02-12T10:48:58;10.30;99.90
5118;DHT22;2578;51.622;7.046;2023-02-12T10:51:38;10.30;99.90
5118;DHT22;2578;51.622;7.046;2023-02-12T10:54:37;10.20;99.90
5118;DHT22;2578;51.622;7.046;2023-02-12T10:57:26;10.30;99.90
5118;DHT22;2578;51.622;7.046;2023-02-12T10:59:54;10.40;99.90
5118;DHT22;2578;51.622;7.046;2023-02-12T11:02:23;10.40;99.90
5118;DHT22;2578;51.622;7.046;2023-02-12T11:04:51;10.30;99.90
5118;DHT22;2578;51.622;7.046;2023-02-12T11:07:17;10.40;99.90
5118;DHT22;2578;51.622;7.046;2023-02-12T11:09:45;10.40;99.90
5118;DHT22;2578;51.622;7.046;2023-02-12T11:15:05;10.50;99.90
5118;DHT22;2578;51.622;7.046;2023-02-12T11:17:40;10.60;99.90
5118;DHT22;2578;51.622;7.046;2023-02-12T11:25:19;10.70;99.90
5118;DHT22;2578;51.622;7.046;2023-02-12T11:27:58;10.70;99.90
5118;DHT22;2578;51.622;7.046;2023-02-12T11:30:24;10.90;99.90
5118;DHT22;2578;51.622;7.046;2023-02-12T11:32:50;10.90;99.90
5118;DHT22;2578;51.622;7.046;2023-02-12T11:35:23;10.90;99.90
5118;DHT22;2578;51.622;7.046;2023-02-12T11:37:54;10.70;99.90
5118;DHT22;2578;51.622;7.046;2023-02-12T11:40:30;10.60;99.90
5118;DHT22;2578;51.622;7.046;2023-02-12T11:43:02;10.60;99.90
5118;DHT22;2578;51.622;7.046;2023-02-12T11:45:44;10.80;99.90
5118;DHT22;2578;51.622;7.046;2023-02-12T11:48:23;10.60;99.90
5118;DHT22;2578;51.622;7.046;2023-02-12T11:50:52;10.50;99.90
5118;DHT22;2578;51.622;7.046;2023-02-12T11:53:25;10.50;99.90
5118;DHT22;2578;51.622;7.046;2023-02-12T11:56:01;10.40;99.90
5118;DHT22;2578;51.622;7.046;2023-02-12T11:58:28;10.40;99.90
5118;DHT22;2578;51.622;7.046;2023-02-12T12:01:00;10.30;99.90
5118;DHT22;2578;51.622;7.046;2023-02-12T12:03:53;10.50;99.90
5118;DHT22;2578;51.622;7.046;2023-02-12T12:06:54;10.60;99.90
5118;DHT22;2578;51.622;7.046;2023-02-12T12:09:31;10.90;99.90
5118;DHT22;2578;51.622;7.046;2023-02-12T12:20:35;11.00;99.90
5118;DHT22;2578;51.622;7.046;2023-02-12T12:23:16;11.00;99.90
5118;DHT22;2578;51.622;7.046;2023-02-12T12:25:47;11.00;99.90
5118;DHT22;2578;51.622;7.046;2023-02-12T12:28:44;10.70;99.90
5118;DHT22;2578;51.622;7.046;2023-02-12T12:39:26;10.70;99.90
5118;DHT22;2578;51.622;7.046;2023-02-12T12:59:44;11.40;99.90
5118;DHT22;2578;51.622;7.046;2023-02-12T13:10:49;11.10;99.90
5118;DHT22;2578;51.622;7.046;2023-02-12T13:13:28;11.20;99.90
5118;DHT22;2578;51.622;7.046;2023-02-12T13:16:16;11.30;99.90
5118;DHT22;2578;51.622;7.046;2023-02-12T13:21:39;11.40;99.90
5118;DHT22;2578;51.622;7.046;2023-02-12T13:24:44;11.30;99.90
5118;DHT22;2578;51.622;7.046;2023-02-12T13:27:15;11.40;99.90
5118;DHT22;2578;51.622;7.046;2023-02-12T13:29:52;11.50;99.90
5118;DHT22;2578;51.622;7.046;2023-02-12T13:32:28;11.50;99.90
5118;DHT22;2578;51.622;7.046;2023-02-12T13:34:55;11.50;99.90
5118;DHT22;2578;51.622;7.046;2023-02-12T13:40:07;11.60;99.90
5118;DHT22;2578;51.622;7.046;2023-02-12T13:48:17;11.70;99.90
5118;DHT22;2578;51.622;7.046;2023-02-12T14:00:57;11.50;99.90
5118;DHT22;2578;51.622;7.046;2023-02-12T14:03:24;11.30;99.90
5118;DHT22;2578;51.622;7.046;2023-02-12T14:08:41;11.20;99.90
5118;DHT22;2578;51.622;7.046;2023-02-12T14:11:11;11.20;99.90
5118;DHT22;2578;51.622;7.046;2023-02-12T14:13:51;11.30;99.90
5118;DHT22;2578;51.622;7.046;2023-02-12T14:25:45;11.20;99.90
5118;DHT22;2578;51.622;7.046;2023-02-12T14:27:53;11.10;99.90
5118;DHT22;2578;51.622;7.046;2023-02-12T14:30:34;11.20;99.90
5118;DHT22;2578;51.622;7.046;2023-02-12T14:35:38;11.00;99.90
5118;DHT22;2578;51.622;7.046;2023-02-12T14:49:01;11.10;99.90
5118;DHT22;2578;51.622;7.046;2023-02-12T14:51:51;11.10;99.90
5118;DHT22;2578;51.622;7.046;2023-02-12T14:54:29;11.10;99.90
5118;DHT22;2578;51.622;7.046;2023-02-12T14:56:58;11.00;99.90
5118;DHT22;2578;51.622;7.046;2023-02-12T14:59:27;10.90;99.90
5118;DHT22;2578;51.622;7.046;2023-02-12T15:01:58;10.90;99.90
5118;DHT22;2578;51.622;7.046;2023-02-12T15:04:27;10.80;99.90
5118;DHT22;2578;51.622;7.046;2023-02-12T15:07:08;10.80;99.90
5118;DHT22;2578;51.622;7.046;2023-02-12T15:09:41;10.70;99.90
5118;DHT22;2578;51.622;7.046;2023-02-12T15:12:16;10.70;99.90
5118;DHT22;2578;51.622;7.046;2023-02-12T15:14:49;10.60;99.90
5118;DHT22;2578;51.622;7.046;2023-02-12T15:17:27;8.90;99.90
5118;DHT22;2578;51.622;7.046;2023-02-12T15:20:06;10.40;99.90
5118;DHT22;2578;51.622;7.046;2023-02-12T15:22:40;10.40;99.90
5118;DHT22;2578;51.622;7.046;2023-02-12T15:25:25;10.30;99.90
5118;DHT22;2578;51.622;7.046;2023-02-12T15:30:27;10.30;99.90
5118;DHT22;2578;51.622;7.046;2023-02-12T15:33:00;10.20;99.90
5118;DHT22;2578;51.622;7.046;2023-02-12T15:35:38;10.10;99.90
5118;DHT22;2578;51.622;7.046;2023-02-12T15:38:05;10.00;99.90
5118;DHT22;2578;51.622;7.046;2023-02-12T15:40:35;10.00;99.90
5118;DHT22;2578;51.622;7.046;2023-02-12T15:43:03;9.90;99.90
5118;DHT22;2578;51.622;7.046;2023-02-12T15:45:34;9.90;99.90
5118;DHT22;2578;51.622;7.046;2023-02-12T15:48:12;9.90;99.90
5118;DHT22;2578;51.622;7.046;2023-02-12T15:50:57;9.90;99.90
5118;DHT22;2578;51.622;7.046;2023-02-12T15:53:27;9.80;99.90
5118;DHT22;2578;51.622;7.046;2023-02-12T15:55:55;9.80;99.90
5118;DHT22;2578;51.622;7.046;2023-02-12T15:58:26;9.80;99.90
5118;DHT22;2578;51.622;7.046;2023-02-12T16:00:53;9.80;99.90
5118;DHT22;2578;51.622;7.046;2023-02-12T16:03:36;9.90;99.90
5118;DHT22;2578;51.622;7.046;2023-02-12T16:06:07;9.80;99.90
5118;DHT22;2578;51.622;7.046;2023-02-12T16:08:36;9.80;99.90
5118;DHT22;2578;51.622;7.046;2023-02-12T16:11:03;9.80;99.90
5118;DHT22;2578;51.622;7.046;2023-02-12T16:13:51;9.80;99.90
5118;DHT22;2578;51.622;7.046;2023-02-12T16:16:21;9.90;99.90
5118;DHT22;2578;51.622;7.046;2023-02-12T16:19:06;9.90;99.90
5118;DHT22;2578;51.622;7.046;2023-02-12T16:21:34;9.90;99.90
5118;DHT22;2578;51.622;7.046;2023-02-12T16:24:01;9.80;99.90
5118;DHT22;2578;51.622;7.046;2023-02-12T16:26:27;9.80;99.90
5118;DHT22;2578;51.622;7.046;2023-02-12T16:28:54;9.80;99.90
5118;DHT22;2578;51.622;7.046;2023-02-12T16:31:21;9.80;99.90
5118;DHT22;2578;51.622;7.046;2023-02-12T16:33:53;9.80;99.90
5118;DHT22;2578;51.622;7.046;2023-02-12T16:38:49;9.80;99.90
5118;DHT22;2578;51.622;7.046;2023-02-12T16:46:25;9.80;99.90
5118;DHT22;2578;51.622;7.046;2023-02-12T16:48:52;9.90;99.90
5118;DHT22;2578;51.622;7.046;2023-02-12T16:51:33;9.90;99.90
5118;DHT22;2578;51.622;7.046;2023-02-12T16:54:01;10.00;99.90
5118;DHT22;2578;51.622;7.046;2023-02-12T16:56:30;10.00;99.90
5118;DHT22;2578;51.622;7.046;2023-02-12T16:58:58;9.90;99.90
5118;DHT22;2578;51.622;7.046;2023-02-12T17:01:32;9.90;99.90
5118;DHT22;2578;51.622;7.046;2023-02-12T17:04:00;9.90;99.90
5118;DHT22;2578;51.622;7.046;2023-02-12T17:06:30;9.80;99.90
5118;DHT22;2578;51.622;7.046;2023-02-12T17:08:56;9.80;99.90
5118;DHT22;2578;51.622;7.046;2023-02-12T17:11:22;9.70;99.90
5118;DHT22;2578;51.622;7.046;2023-02-12T17:13:50;9.70;99.90
5118;DHT22;2578;51.622;7.046;2023-02-12T17:16:16;9.70;99.90
5118;DHT22;2578;51.622;7.046;2023-02-12T17:18:42;9.60;99.90
5118;DHT22;2578;51.622;7.046;2023-02-12T17:21:22;9.50;99.90
5118;DHT22;2578;51.622;7.046;2023-02-12T17:23:49;9.50;99.90
5118;DHT22;2578;51.622;7.046;2023-02-12T17:26:14;9.60;99.90
5118;DHT22;2578;51.622;7.046;2023-02-12T17:28:40;9.60;99.90
5118;DHT22;2578;51.622;7.046;2023-02-12T17:31:09;9.60;99.90
5118;DHT22;2578;51.622;7.046;2023-02-12T17:33:35;9.60;99.90
5118;DHT22;2578;51.622;7.046;2023-02-12T17:36:01;9.60;99.90
5118;DHT22;2578;51.622;7.046;2023-02-12T17:38:27;9.60;99.90
5118;DHT22;2578;51.622;7.046;2023-02-12T17:40:52;9.60;99.90
5118;DHT22;2578;51.622;7.046;2023-02-12T17:43:18;9.60;99.90
5118;DHT22;2578;51.622;7.046;2023-02-12T17:45:44;9.40;99.90
5118;DHT22;2578;51.622;7.046;2023-02-12T17:48:11;9.40;99.90
5118;DHT22;2578;51.622;7.046;2023-02-12T17:50:38;9.40;99.90
5118;DHT22;2578;51.622;7.046;2023-02-12T17:53:04;9.40;99.90
5118;DHT22;2578;51.622;7.046;2023-02-12T17:57:56;9.40;99.90
5118;DHT22;2578;51.622;7.046;2023-02-12T18:00:22;9.50;99.90
5118;DHT22;2578;51.622;7.046;2023-02-12T18:02:48;9.50;99.90
5118;DHT22;2578;51.622;7.046;2023-02-12T18:05:14;9.50;99.90
5118;DHT22;2578;51.622;7.046;2023-02-12T18:07:40;9.40;99.90
5118;DHT22;2578;51.622;7.046;2023-02-12T18:10:06;9.40;99.90
5118;DHT22;2578;51.622;7.046;2023-02-12T18:12:33;9.40;99.90
5118;DHT22;2578;51.622;7.046;2023-02-12T18:15:00;9.40;99.90
5118;DHT22;2578;51.622;7.046;2023-02-12T18:17:27;9.30;99.90
5118;DHT22;2578;51.622;7.046;2023-02-12T18:19:53;9.30;99.90
5118;DHT22;2578;51.622;7.046;2023-02-12T18:22:19;9.30;99.90
5118;DHT22;2578;51.622;7.046;2023-02-12T18:24:45;9.20;99.90
5118;DHT22;2578;51.622;7.046;2023-02-12T18:27:12;9.20;99.90
5118;DHT22;2578;51.622;7.046;2023-02-12T18:29:38;9.10;99.90
5118;DHT22;2578;51.622;7.046;2023-02-12T18:32:04;9.00;99.90
5118;DHT22;2578;51.622;7.046;2023-02-12T18:34:30;9.00;99.90
5118;DHT22;2578;51.622;7.046;2023-02-12T18:36:56;9.00;99.90
5118;DHT22;2578;51.622;7.046;2023-02-12T18:39:22;9.00;99.90
5118;DHT22;2578;51.622;7.046;2023-02-12T18:41:47;9.00;99.90
5118;DHT22;2578;51.622;7.046;2023-02-12T18:44:13;9.00;99.90
5118;DHT22;2578;51.622;7.046;2023-02-12T18:46:40;9.00;99.90
5118;DHT22;2578;51.622;7.046;2023-02-12T18:49:06;8.90;99.90
5118;DHT22;2578;51.622;7.046;2023-02-12T18:51:32;8.90;99.90
5118;DHT22;2578;51.622;7.046;2023-02-12T18:54:03;9.00;99.90
5118;DHT22;2578;51.622;7.046;2023-02-12T18:56:31;8.90;99.90
5118;DHT22;2578;51.622;7.046;2023-02-12T18:58:59;8.80;99.90
5118;DHT22;2578;51.622;7.046;2023-02-12T19:01:26;8.80;99.90
5118;DHT22;2578;51.622;7.046;2023-02-12T19:03:53;8.80;99.90
5118;DHT22;2578;51.622;7.046;2023-02-12T19:06:20;8.80;99.90
5118;DHT22;2578;51.622;7.046;2023-02-12T19:08:46;8.70;99.90
5118;DHT22;2578;51.622;7.046;2023-02-12T19:11:12;8.70;99.90
5118;DHT22;2578;51.622;7.046;2023-02-12T19:13:38;8.70;99.90
5118;DHT22;2578;51.622;7.046;2023-02-12T19:16:12;8.70;99.90
5118;DHT22;2578;51.622;7.046;2023-02-12T19:18:38;8.80;99.90
5118;DHT22;2578;51.622;7.046;2023-02-12T19:21:11;8.80;99.90
5118;DHT22;2578;51.622;7.046;2023-02-12T19:23:37;8.80;99.90
5118;DHT22;2578;51.622;7.046;2023-02-12T19:26:04;8.80;99.90
5118;DHT22;2578;51.622;7.046;2023-02-12T19:28:30;8.80;99.90